createdAt,value
2018-08-14T00:00:33.884Z,19.00
2018-08-14T00:02:39.367Z,18.90
2018-08-14T00:04:44.388Z,18.90
2018-08-14T00:06:49.161Z,18.90
2018-08-14T00:08:54.172Z,18.90
2018-08-14T00:10:59.060Z,18.90
2018-08-14T00:13:04.014Z,18.80
2018-08-14T00:15:13.346Z,19.00
2018-08-14T00:17:18.366Z,19.00
2018-08-14T00:19:23.660Z,19.00
2018-08-14T00:21:28.408Z,19.00
2018-08-14T00:23:33.314Z,19.00
2018-08-14T00:25:38.172Z,18.90
2018-08-14T00:27:43.064Z,18.90
2018-08-14T00:29:47.885Z,18.90
2018-08-14T00:31:52.642Z,18.90
2018-08-14T00:33:57.501Z,18.80
2018-08-14T00:36:02.324Z,18.80
2018-08-14T00:38:07.935Z,18.70
2018-08-14T00:40:16.510Z,18.70
2018-08-14T00:42:22.404Z,18.70
2018-08-14T00:44:27.212Z,18.70
2018-08-14T00:46:32.146Z,18.60
2018-08-14T00:48:36.959Z,18.80
2018-08-14T00:50:41.916Z,18.80
2018-08-14T00:52:47.266Z,18.90
2018-08-14T00:54:51.965Z,18.80
2018-08-14T00:56:56.754Z,18.70
2018-08-14T00:59:01.756Z,18.70
2018-08-14T01:01:06.689Z,18.70
2018-08-14T01:03:13.606Z,18.70
2018-08-14T01:05:19.406Z,18.80
2018-08-14T01:07:24.425Z,18.80
2018-08-14T01:09:29.267Z,18.80
2018-08-14T01:11:34.066Z,18.80
2018-08-14T01:13:38.886Z,19.00
2018-08-14T01:15:44.601Z,18.90
2018-08-14T01:17:51.672Z,18.90
2018-08-14T01:19:56.577Z,18.90
2018-08-14T01:22:01.393Z,18.90
2018-08-14T01:24:06.224Z,18.90
2018-08-14T01:26:11.006Z,18.90
2018-08-14T01:28:15.787Z,18.90
2018-08-14T01:30:26.681Z,18.90
2018-08-14T01:32:31.571Z,19.10
2018-08-14T01:34:36.659Z,19.10
2018-08-14T01:36:41.452Z,19.10
2018-08-14T01:38:46.273Z,19.10
2018-08-14T01:40:51.004Z,19.00
2018-08-14T01:42:55.996Z,19.00
2018-08-14T01:45:00.818Z,19.00
2018-08-14T01:47:05.839Z,19.00
2018-08-14T01:49:11.253Z,19.00
2018-08-14T01:51:16.186Z,19.00
2018-08-14T01:53:21.071Z,19.00
2018-08-14T01:55:26.200Z,18.90
2018-08-14T01:57:31.000Z,18.90
2018-08-14T01:59:35.723Z,19.00
2018-08-14T02:01:40.539Z,19.10
2018-08-14T02:03:45.371Z,19.00
2018-08-14T02:05:50.170Z,19.00
2018-08-14T02:07:54.984Z,19.00
2018-08-14T02:09:59.748Z,18.90
2018-08-14T02:12:04.476Z,19.00
2018-08-14T02:14:09.297Z,18.90
2018-08-14T02:16:14.166Z,18.90
2018-08-14T02:18:19.214Z,18.90
2018-08-14T02:20:24.831Z,18.90
2018-08-14T02:22:29.768Z,19.00
2018-08-14T02:24:34.699Z,19.00
2018-08-14T02:26:39.624Z,19.00
2018-08-14T02:28:44.468Z,19.00
2018-08-14T02:30:49.348Z,19.00
2018-08-14T02:32:54.341Z,18.90
2018-08-14T02:34:59.529Z,19.00
2018-08-14T02:37:04.295Z,19.00
2018-08-14T02:39:11.679Z,18.90
2018-08-14T02:41:16.560Z,18.90
2018-08-14T02:43:21.407Z,19.00
2018-08-14T02:45:26.156Z,18.90
2018-08-14T02:47:31.014Z,18.90
2018-08-14T02:49:35.717Z,18.90
2018-08-14T02:51:40.581Z,19.00
2018-08-14T02:53:45.522Z,19.00
2018-08-14T02:55:50.427Z,19.00
2018-08-14T02:57:55.279Z,18.90
2018-08-14T03:00:00.185Z,18.80
2018-08-14T03:02:05.156Z,18.80
2018-08-14T03:04:10.013Z,18.80
2018-08-14T03:06:14.749Z,18.90
2018-08-14T03:08:19.662Z,18.90
2018-08-14T03:10:24.597Z,18.80
2018-08-14T03:12:29.378Z,18.80
2018-08-14T03:14:34.259Z,18.90
2018-08-14T03:16:39.074Z,18.90
2018-08-14T03:18:44.014Z,18.90
2018-08-14T03:20:48.892Z,18.80
2018-08-14T03:22:54.018Z,18.90
2018-08-14T03:24:58.889Z,18.80
2018-08-14T03:27:03.676Z,18.80
2018-08-14T03:29:08.591Z,18.80
2018-08-14T03:31:13.383Z,18.80
2018-08-14T03:33:18.440Z,18.70
2018-08-14T03:35:23.527Z,18.70
2018-08-14T03:37:28.320Z,18.70
2018-08-14T03:39:33.116Z,18.70
2018-08-14T03:41:38.008Z,18.70
2018-08-14T03:43:42.774Z,18.70
2018-08-14T03:45:47.655Z,18.70
2018-08-14T03:47:52.521Z,18.70
2018-08-14T03:49:57.253Z,18.80
2018-08-14T03:52:02.123Z,18.80
2018-08-14T03:54:06.960Z,18.80
2018-08-14T03:56:11.849Z,18.80
2018-08-14T03:58:16.730Z,18.70
2018-08-14T04:00:21.543Z,18.70
2018-08-14T04:02:26.558Z,18.70
2018-08-14T04:04:31.513Z,18.70
2018-08-14T04:06:36.432Z,18.70
2018-08-14T04:08:41.259Z,18.70
2018-08-14T04:10:46.178Z,18.80
2018-08-14T04:12:50.924Z,18.80
2018-08-14T04:14:56.169Z,18.70
2018-08-14T04:17:01.080Z,18.70
2018-08-14T04:19:07.021Z,18.70
2018-08-14T04:21:11.746Z,18.60
2018-08-14T04:23:16.556Z,18.60
2018-08-14T04:25:21.529Z,18.70
2018-08-14T04:27:26.549Z,18.60
2018-08-14T04:29:31.484Z,18.60
2018-08-14T04:31:36.342Z,18.60
2018-08-14T04:33:41.158Z,18.70
2018-08-14T04:35:45.936Z,18.60
2018-08-14T04:37:50.811Z,18.60
2018-08-14T04:39:55.615Z,18.50
2018-08-14T04:42:00.453Z,18.50
2018-08-14T04:44:05.344Z,18.60
2018-08-14T04:46:10.165Z,18.70
2018-08-14T04:48:15.157Z,18.60
2018-08-14T04:50:20.573Z,18.70
2018-08-14T04:52:25.597Z,18.80
2018-08-14T04:54:31.878Z,18.70
2018-08-14T04:56:36.876Z,18.70
2018-08-14T04:58:41.801Z,18.70
2018-08-14T05:00:46.778Z,18.70
2018-08-14T05:02:51.702Z,18.70
2018-08-14T05:04:56.603Z,18.60
2018-08-14T05:07:01.628Z,18.60
2018-08-14T05:09:11.893Z,18.60
2018-08-14T05:11:16.733Z,18.60
2018-08-14T05:13:22.001Z,18.50
2018-08-14T05:15:27.022Z,18.60
2018-08-14T05:17:32.030Z,18.60
2018-08-14T05:19:37.288Z,18.60
2018-08-14T05:21:42.258Z,18.60
2018-08-14T05:23:47.136Z,18.60
2018-08-14T05:25:52.100Z,18.60
2018-08-14T05:27:56.946Z,18.60
2018-08-14T05:30:02.070Z,18.50
2018-08-14T05:32:07.218Z,18.60
2018-08-14T05:34:12.206Z,18.50
2018-08-14T05:36:17.167Z,18.50
2018-08-14T05:38:22.133Z,18.50
2018-08-14T05:40:27.133Z,18.50
2018-08-14T05:42:31.965Z,18.50
2018-08-14T05:44:36.835Z,18.40
2018-08-14T05:46:41.875Z,18.40
2018-08-14T05:48:46.653Z,18.30
2018-08-14T05:50:51.551Z,18.30
2018-08-14T05:52:56.781Z,18.30
2018-08-14T05:55:01.805Z,18.30
2018-08-14T05:57:06.572Z,18.30
2018-08-14T05:59:11.924Z,18.30
2018-08-14T06:01:16.670Z,18.20
2018-08-14T06:03:21.567Z,18.10
2018-08-14T06:05:26.555Z,18.20
2018-08-14T06:07:31.411Z,18.30
2018-08-14T06:09:36.358Z,18.30
2018-08-14T06:11:42.160Z,18.40
2018-08-14T06:13:47.112Z,18.30
2018-08-14T06:15:52.072Z,18.40
2018-08-14T06:18:00.732Z,18.40
2018-08-14T06:20:07.979Z,18.40
2018-08-14T06:22:13.101Z,18.50
2018-08-14T06:24:18.021Z,18.50
2018-08-14T06:26:22.960Z,18.50
2018-08-14T06:28:28.853Z,18.60
2018-08-14T06:30:33.966Z,18.60
2018-08-14T06:32:39.160Z,18.60
2018-08-14T06:34:44.185Z,18.70
2018-08-14T06:36:49.173Z,18.70
2018-08-14T06:38:54.775Z,18.70
2018-08-14T06:41:00.322Z,18.70
2018-08-14T06:43:05.325Z,18.70
2018-08-14T06:45:13.380Z,18.70
2018-08-14T06:47:18.476Z,18.60
2018-08-14T06:49:23.440Z,18.70
2018-08-14T06:51:28.694Z,18.70
2018-08-14T06:53:33.682Z,18.70
2018-08-14T06:55:38.585Z,18.70
2018-08-14T06:57:44.608Z,18.80
2018-08-14T06:59:49.492Z,18.80
2018-08-14T07:01:54.514Z,18.90
2018-08-14T07:04:00.805Z,19.00
2018-08-14T07:06:06.291Z,19.10
2018-08-14T07:08:11.263Z,19.20
2018-08-14T07:10:16.226Z,19.10
2018-08-14T07:12:21.587Z,19.20
2018-08-14T07:14:27.246Z,19.20
2018-08-14T07:16:32.584Z,19.20
2018-08-14T07:18:37.909Z,19.20
2018-08-14T07:20:43.200Z,19.20
2018-08-14T07:22:48.249Z,19.20
2018-08-14T07:24:53.224Z,19.30
2018-08-14T07:26:58.142Z,19.20
2018-08-14T07:29:04.707Z,19.10
2018-08-14T07:31:09.856Z,19.00
2018-08-14T07:33:14.859Z,19.00
2018-08-14T07:35:19.921Z,19.00
2018-08-14T07:37:25.032Z,19.20
2018-08-14T07:39:30.579Z,19.20
2018-08-14T07:41:35.764Z,19.30
2018-08-14T07:43:40.683Z,19.30
2018-08-14T07:45:46.052Z,19.30
2018-08-14T07:47:50.947Z,19.30
2018-08-14T07:49:55.963Z,19.20
2018-08-14T07:52:00.927Z,19.20
2018-08-14T07:54:06.030Z,19.40
2018-08-14T07:56:11.288Z,19.50
2018-08-14T07:58:16.298Z,19.50
2018-08-14T08:00:22.215Z,19.60
2018-08-14T08:02:27.030Z,19.70
2018-08-14T08:04:32.233Z,19.70
2018-08-14T08:06:37.187Z,19.70
2018-08-14T08:08:44.592Z,19.70
2018-08-14T08:10:50.141Z,19.80
2018-08-14T08:12:55.100Z,19.80
2018-08-14T08:15:00.358Z,19.90
2018-08-14T08:17:05.349Z,19.90
2018-08-14T08:19:10.924Z,19.90
2018-08-14T08:21:15.837Z,19.90
2018-08-14T08:23:20.810Z,19.90
2018-08-14T08:25:26.715Z,19.80
2018-08-14T08:27:31.781Z,19.80
2018-08-14T08:29:36.716Z,19.80
2018-08-14T08:31:41.805Z,19.90
2018-08-14T08:33:46.909Z,19.80
2018-08-14T08:35:51.790Z,20.00
2018-08-14T08:37:57.028Z,19.90
2018-08-14T08:40:01.809Z,19.90
2018-08-14T08:42:06.877Z,19.90
2018-08-14T08:44:11.955Z,20.00
2018-08-14T08:46:16.869Z,20.10
2018-08-14T08:48:23.272Z,20.10
2018-08-14T08:50:28.534Z,20.10
2018-08-14T08:52:33.542Z,20.10
2018-08-14T08:54:38.784Z,20.20
2018-08-14T08:56:43.873Z,20.20
2018-08-14T08:58:49.915Z,20.20
2018-08-14T09:00:55.248Z,20.40
2018-08-14T09:03:00.345Z,20.50
2018-08-14T09:05:06.427Z,20.40
2018-08-14T09:07:11.588Z,20.30
2018-08-14T09:09:16.893Z,20.40
2018-08-14T09:11:21.836Z,20.40
2018-08-14T09:13:27.050Z,20.40
2018-08-14T09:15:32.233Z,20.40
2018-08-14T09:17:37.751Z,20.40
2018-08-14T09:19:42.856Z,20.50
2018-08-14T09:21:47.898Z,20.50
2018-08-14T09:23:52.850Z,20.40
2018-08-14T09:25:58.101Z,20.50
2018-08-14T09:28:03.498Z,20.60
2018-08-14T09:30:13.439Z,20.70
2018-08-14T09:32:18.531Z,20.60
2018-08-14T09:34:23.656Z,20.50
2018-08-14T09:36:28.614Z,20.70
2018-08-14T09:38:33.565Z,20.70
2018-08-14T09:40:47.393Z,20.60
2018-08-14T09:42:54.467Z,20.60
2018-08-14T09:44:59.901Z,20.70
2018-08-14T09:47:05.304Z,20.70
2018-08-14T09:49:10.233Z,20.70
2018-08-14T09:51:15.113Z,20.80
2018-08-14T09:53:20.119Z,20.80
2018-08-14T09:55:25.276Z,20.90
2018-08-14T09:57:30.207Z,21.10
2018-08-14T09:59:35.120Z,21.30
2018-08-14T10:01:45.175Z,21.50
2018-08-14T10:03:55.808Z,21.30
2018-08-14T10:06:05.582Z,21.50
2018-08-14T10:08:15.206Z,21.60
2018-08-14T10:10:20.382Z,21.50
2018-08-14T10:12:25.131Z,21.40
2018-08-14T10:14:35.071Z,21.40
2018-08-14T10:16:40.013Z,21.40
2018-08-14T10:18:45.109Z,21.40
2018-08-14T10:20:50.307Z,21.40
2018-08-14T10:22:55.477Z,21.60
2018-08-14T10:25:00.234Z,21.70
2018-08-14T10:27:05.219Z,21.70
2018-08-14T10:29:10.928Z,21.80
2018-08-14T10:31:15.908Z,21.90
2018-08-14T10:33:20.904Z,22.00
2018-08-14T10:35:25.730Z,22.00
2018-08-14T10:37:30.651Z,22.00
2018-08-14T10:39:35.852Z,22.00
2018-08-14T10:41:40.812Z,21.90
2018-08-14T10:43:45.796Z,21.90
2018-08-14T10:45:50.692Z,22.00
2018-08-14T10:47:55.608Z,22.00
2018-08-14T10:50:00.544Z,22.10
2018-08-14T10:52:05.716Z,22.20
2018-08-14T10:54:10.768Z,22.30
2018-08-14T10:56:15.666Z,22.10
2018-08-14T10:58:21.159Z,22.10
2018-08-14T11:00:30.132Z,22.30
2018-08-14T11:02:35.090Z,22.40
2018-08-14T11:04:39.970Z,22.50
2018-08-14T11:06:44.954Z,22.70
2018-08-14T11:08:49.937Z,22.70
2018-08-14T11:10:59.866Z,22.50
2018-08-14T11:13:04.771Z,22.60
2018-08-14T11:15:10.417Z,22.60
2018-08-14T11:17:15.657Z,22.60
2018-08-14T11:19:20.607Z,22.60
2018-08-14T11:21:25.787Z,22.60
2018-08-14T11:23:32.421Z,22.70
2018-08-14T11:25:37.483Z,22.80
2018-08-14T11:27:42.778Z,22.60
2018-08-14T11:29:47.818Z,22.50
2018-08-14T11:31:53.799Z,22.60
2018-08-14T11:33:58.754Z,22.60
2018-08-14T11:36:05.605Z,22.60
2018-08-14T11:38:10.466Z,22.70
2018-08-14T11:40:15.398Z,22.70
2018-08-14T11:42:20.701Z,22.80
2018-08-14T11:44:25.859Z,22.90
2018-08-14T11:46:30.951Z,22.90
2018-08-14T11:48:36.169Z,22.80
2018-08-14T11:50:41.444Z,22.90
2018-08-14T11:52:48.103Z,22.90
2018-08-14T11:54:53.284Z,22.70
2018-08-14T11:56:58.292Z,22.80
2018-08-14T11:59:03.425Z,22.70
2018-08-14T12:01:08.597Z,22.80
2018-08-14T12:03:13.620Z,22.90
2018-08-14T12:05:18.520Z,23.10
2018-08-14T12:07:23.486Z,23.10
2018-08-14T12:09:28.447Z,23.20
2018-08-14T12:11:33.283Z,23.10
2018-08-14T12:13:38.106Z,23.10
2018-08-14T12:15:42.964Z,23.10
2018-08-14T12:17:48.426Z,23.00
2018-08-14T12:19:53.445Z,23.10
2018-08-14T12:21:58.934Z,23.30
2018-08-14T12:24:03.717Z,23.30
2018-08-14T12:26:08.558Z,23.30
2018-08-14T12:28:13.571Z,23.40
2018-08-14T12:30:21.721Z,23.40
2018-08-14T12:32:26.682Z,23.40
2018-08-14T12:34:31.601Z,23.50
2018-08-14T12:36:36.611Z,23.50
2018-08-14T12:38:41.508Z,23.40
2018-08-14T12:40:46.620Z,23.40
2018-08-14T12:42:51.467Z,23.40
2018-08-14T12:44:57.082Z,23.40
2018-08-14T12:47:01.906Z,23.40
2018-08-14T12:49:06.876Z,23.30
2018-08-14T12:51:11.772Z,23.40
2018-08-14T12:53:16.812Z,23.60
2018-08-14T12:55:21.758Z,23.60
2018-08-14T12:57:26.483Z,23.70
2018-08-14T12:59:31.211Z,23.80
2018-08-14T13:01:36.299Z,23.90
2018-08-14T13:03:40.981Z,24.00
2018-08-14T13:05:46.075Z,24.00
2018-08-14T13:07:51.044Z,24.00
2018-08-14T13:09:55.865Z,24.10
2018-08-14T13:12:00.912Z,24.10
2018-08-14T13:14:06.048Z,24.00
2018-08-14T13:16:11.282Z,24.00
2018-08-14T13:18:16.440Z,24.00
2018-08-14T13:20:21.424Z,24.00
2018-08-14T13:22:26.338Z,24.10
2018-08-14T13:24:31.304Z,24.10
2018-08-14T13:26:36.159Z,24.20
2018-08-14T13:28:40.842Z,24.30
2018-08-14T13:30:45.691Z,24.20
2018-08-14T13:32:50.674Z,24.40
2018-08-14T13:34:55.558Z,24.50
2018-08-14T13:37:00.343Z,24.50
2018-08-14T13:39:08.214Z,24.50
2018-08-14T13:41:13.170Z,24.50
2018-08-14T13:43:18.104Z,24.60
2018-08-14T13:45:22.973Z,24.60
2018-08-14T13:47:27.972Z,24.60
2018-08-14T13:49:32.805Z,24.80
2018-08-14T13:51:37.919Z,24.90
2018-08-14T13:53:42.720Z,24.90
2018-08-14T13:55:47.481Z,24.80
2018-08-14T13:57:52.311Z,24.70
2018-08-14T13:59:57.476Z,24.70
2018-08-14T14:02:02.661Z,24.70
2018-08-14T14:04:07.639Z,24.80
2018-08-14T14:06:12.588Z,24.80
2018-08-14T14:08:17.770Z,24.80
2018-08-14T14:10:23.166Z,24.70
2018-08-14T14:12:28.178Z,24.80
2018-08-14T14:14:33.731Z,24.90
2018-08-14T14:16:38.762Z,24.90
2018-08-14T14:18:43.674Z,25.00
2018-08-14T14:20:48.648Z,25.00
2018-08-14T14:22:54.155Z,25.10
2018-08-14T14:24:59.081Z,25.10
2018-08-14T14:27:04.176Z,25.10
2018-08-14T14:29:09.302Z,25.00
2018-08-14T14:31:14.352Z,25.00
2018-08-14T14:33:19.241Z,25.00
2018-08-14T14:35:24.046Z,25.10
2018-08-14T14:37:29.070Z,25.10
2018-08-14T14:39:34.688Z,25.10
2018-08-14T14:41:39.863Z,25.10
2018-08-14T14:43:44.749Z,25.10
2018-08-14T14:45:49.674Z,25.00
2018-08-14T14:47:54.564Z,25.10
2018-08-14T14:50:00.028Z,25.10
2018-08-14T14:52:05.275Z,24.90
2018-08-14T14:54:10.899Z,24.90
2018-08-14T14:56:15.941Z,24.80
2018-08-14T14:58:20.962Z,24.90
2018-08-14T15:00:27.949Z,25.00
2018-08-14T15:02:33.788Z,24.90
2018-08-14T15:04:39.456Z,25.10
2018-08-14T15:06:44.431Z,25.10
2018-08-14T15:08:49.655Z,25.20
2018-08-14T15:10:54.873Z,25.30
2018-08-14T15:13:00.060Z,25.30
2018-08-14T15:15:05.558Z,25.20
2018-08-14T15:17:10.674Z,25.20
2018-08-14T15:19:20.868Z,25.40
2018-08-14T15:21:26.503Z,25.30
2018-08-14T15:23:33.489Z,25.20
2018-08-14T15:25:38.618Z,25.20
2018-08-14T15:29:01.221Z,25.10
2018-08-14T15:31:06.822Z,25.00
2018-08-14T15:33:11.794Z,25.10
2018-08-14T15:35:16.931Z,25.20
2018-08-14T15:37:22.026Z,25.30
2018-08-14T15:39:27.634Z,25.30
2018-08-14T15:41:32.579Z,25.30
2018-08-14T15:43:38.795Z,25.20
2018-08-14T15:45:46.584Z,25.20
2018-08-14T15:47:51.869Z,25.00
2018-08-14T15:49:57.047Z,24.90
2018-08-14T15:52:04.487Z,24.80
2018-08-14T15:54:13.504Z,24.70
2018-08-14T15:56:18.441Z,24.60
2018-08-14T15:58:23.519Z,24.40
2018-08-14T16:00:28.677Z,24.30
2018-08-14T16:02:33.977Z,24.30
2018-08-14T16:04:38.849Z,24.30
2018-08-14T16:06:44.058Z,24.20
2018-08-14T16:08:49.893Z,24.20
2018-08-14T16:10:54.847Z,24.10
2018-08-14T16:12:59.760Z,24.20
2018-08-14T16:15:04.934Z,24.20
2018-08-14T16:17:09.937Z,24.30
2018-08-14T16:19:16.044Z,24.30
2018-08-14T16:21:21.070Z,24.30
2018-08-14T16:23:26.106Z,24.30
2018-08-14T16:25:31.275Z,24.30
2018-08-14T16:27:36.899Z,24.30
2018-08-14T16:29:42.350Z,24.20
2018-08-14T16:31:47.438Z,24.10
2018-08-14T16:33:53.505Z,24.10
2018-08-14T16:35:58.606Z,23.90
2018-08-14T16:38:03.725Z,23.90
2018-08-14T16:40:08.972Z,23.80
2018-08-14T16:42:14.298Z,23.60
2018-08-14T16:44:19.267Z,23.60
2018-08-14T16:46:24.488Z,23.70
2018-08-14T16:48:29.567Z,23.60
2018-08-14T16:50:34.479Z,23.60
2018-08-14T16:52:39.365Z,23.60
2018-08-14T16:54:44.445Z,23.50
2018-08-14T16:56:50.408Z,23.50
2018-08-14T16:58:55.331Z,23.30
2018-08-14T17:01:00.495Z,23.20
2018-08-14T17:03:07.473Z,23.40
2018-08-14T17:05:12.546Z,23.30
2018-08-14T17:07:17.678Z,23.20
2018-08-14T17:09:22.738Z,23.10
2018-08-14T17:11:27.633Z,23.00
2018-08-14T17:13:32.751Z,23.10
2018-08-14T17:15:37.663Z,23.00
2018-08-14T17:17:42.809Z,23.00
2018-08-14T17:19:45.714Z,22.90
2018-08-14T17:21:48.733Z,22.80
2018-08-14T17:23:53.857Z,22.70
2018-08-14T17:25:58.804Z,22.70
2018-08-14T17:28:03.679Z,22.70
2018-08-14T17:30:15.270Z,22.70
2018-08-14T17:32:20.801Z,22.70
2018-08-14T17:34:26.131Z,22.80
2018-08-14T17:36:31.240Z,22.70
2018-08-14T17:38:36.283Z,22.70
2018-08-14T17:40:45.132Z,22.70
2018-08-14T17:42:50.308Z,22.70
2018-08-14T17:44:55.907Z,22.60
2018-08-14T17:47:01.329Z,22.60
2018-08-14T17:49:06.673Z,22.50
2018-08-14T17:51:11.989Z,22.40
2018-08-14T17:53:17.113Z,22.20
2018-08-14T17:55:22.534Z,22.20
2018-08-14T17:57:27.433Z,22.30
2018-08-14T17:59:32.371Z,22.40
2018-08-14T18:01:37.851Z,22.20
2018-08-14T18:03:43.350Z,22.20
2018-08-14T18:05:48.494Z,22.20
2018-08-14T18:07:54.514Z,22.20
2018-08-14T18:10:00.696Z,22.40
2018-08-14T18:19:53.790Z,22.10
2018-08-14T18:21:59.052Z,22.10
2018-08-14T18:24:07.082Z,22.30
2018-08-14T18:26:15.160Z,22.30
2018-08-14T18:28:22.488Z,22.30
2018-08-14T18:30:29.559Z,22.20
2018-08-14T18:32:36.380Z,22.20
2018-08-14T18:34:41.229Z,22.10
2018-08-14T18:36:46.212Z,22.00
2018-08-14T18:38:51.266Z,22.00
2018-08-14T18:40:56.879Z,22.10
2018-08-14T18:43:01.941Z,22.00
2018-08-14T18:45:09.238Z,21.90
2018-08-14T18:47:14.220Z,21.90
2018-08-14T18:49:19.300Z,21.90
2018-08-14T18:51:24.338Z,22.00
2018-08-14T18:53:29.553Z,21.90
2018-08-14T18:55:34.576Z,22.00
2018-08-14T18:57:41.684Z,22.00
2018-08-14T18:59:46.959Z,22.00
2018-08-14T19:01:52.363Z,21.90
2018-08-14T19:03:57.999Z,21.80
2018-08-14T19:06:03.434Z,21.90
2018-08-14T19:08:09.927Z,22.10
2018-08-14T19:10:17.519Z,22.00
2018-08-14T19:12:28.439Z,21.80
2018-08-14T19:14:33.700Z,21.70
2018-08-14T19:16:39.100Z,21.60
2018-08-14T19:18:44.589Z,21.50
2018-08-14T19:20:50.169Z,21.40
2018-08-14T19:22:55.368Z,21.40
2018-08-14T19:25:00.404Z,21.30
2018-08-14T19:27:05.918Z,21.30
2018-08-14T19:29:12.623Z,21.30
2018-08-14T19:31:17.674Z,21.20
2018-08-14T19:33:24.483Z,21.10
2018-08-14T19:35:29.938Z,21.20
2018-08-14T19:37:39.220Z,21.10
2018-08-14T19:39:47.858Z,21.10
2018-08-14T19:41:54.557Z,21.30
2018-08-14T19:44:03.088Z,21.40
2018-08-14T19:46:10.534Z,21.20
2018-08-14T19:48:16.194Z,21.10
2018-08-14T19:50:22.940Z,21.10
2018-08-14T19:52:30.393Z,21.10
2018-08-14T19:54:36.962Z,21.30
2018-08-14T19:56:43.154Z,21.20
2018-08-14T19:58:50.245Z,21.20
2018-08-14T20:00:56.267Z,21.30
2018-08-14T20:03:01.877Z,21.20
2018-08-14T20:05:13.203Z,21.20
2018-08-14T20:07:18.660Z,21.20
2018-08-14T20:09:26.622Z,21.20
2018-08-14T20:11:33.316Z,21.20
2018-08-14T20:13:39.935Z,21.10
2018-08-14T20:15:50.219Z,21.00
2018-08-14T20:17:55.497Z,21.00
2018-08-14T20:20:01.135Z,20.90
2018-08-14T20:22:07.441Z,20.90
2018-08-14T20:24:12.585Z,20.90
2018-08-14T20:26:18.067Z,20.90
2018-08-14T20:28:24.442Z,20.90
2018-08-14T20:30:29.635Z,20.90
2018-08-14T20:32:34.712Z,21.00
2018-08-14T20:34:40.518Z,21.00
2018-08-14T20:36:45.706Z,21.00
2018-08-14T20:38:50.867Z,20.90
2018-08-14T20:40:56.027Z,21.00
2018-08-14T20:43:01.419Z,20.90
2018-08-14T20:45:10.380Z,20.90
2018-08-14T20:47:16.928Z,20.80
2018-08-14T20:49:22.449Z,20.90
2018-08-14T20:51:28.930Z,20.80
2018-08-14T20:53:33.924Z,20.80
2018-08-14T20:55:38.867Z,20.90
2018-08-14T20:57:44.574Z,21.00
2018-08-14T20:59:51.232Z,20.90
2018-08-14T21:01:56.556Z,20.90
2018-08-14T21:04:01.759Z,20.80
2018-08-14T21:06:06.956Z,20.70
2018-08-14T21:08:12.184Z,20.60
2018-08-14T21:10:19.100Z,20.60
2018-08-14T21:12:29.281Z,20.60
2018-08-14T21:14:34.603Z,20.50
2018-08-14T21:16:40.904Z,20.60
2018-08-14T21:18:47.191Z,20.50
2018-08-14T21:20:52.668Z,20.40
2018-08-14T21:22:57.704Z,20.40
2018-08-14T21:25:02.688Z,20.50
2018-08-14T21:27:07.766Z,20.40
2018-08-14T21:29:13.155Z,20.40
2018-08-14T21:31:18.098Z,20.40
2018-08-14T21:33:23.061Z,20.30
2018-08-14T21:35:27.963Z,20.40
2018-08-14T21:37:33.084Z,20.30
2018-08-14T21:39:38.146Z,20.40
2018-08-14T21:41:43.038Z,20.40
2018-08-14T21:43:48.260Z,20.40
2018-08-14T21:45:53.146Z,20.40
2018-08-14T21:47:58.135Z,20.40
2018-08-14T21:50:03.556Z,20.50
2018-08-14T21:52:08.716Z,20.40
2018-08-14T21:54:14.141Z,20.40
2018-08-14T21:56:19.273Z,20.50
2018-08-14T21:58:24.265Z,20.50
2018-08-14T22:01:32.025Z,20.40
2018-08-14T22:03:42.779Z,20.20
2018-08-14T22:05:47.630Z,20.20
2018-08-14T22:07:52.565Z,20.20
2018-08-14T22:09:57.652Z,20.20
2018-08-14T22:12:02.700Z,20.20
2018-08-14T22:14:07.489Z,20.40
2018-08-14T22:16:12.614Z,20.50
2018-08-14T22:18:18.054Z,20.40
2018-08-14T22:20:22.981Z,20.30
2018-08-14T22:22:28.079Z,20.20
2018-08-14T22:24:33.030Z,20.10
2018-08-14T22:26:38.529Z,20.00
2018-08-14T22:28:43.428Z,20.00
2018-08-14T22:30:48.694Z,19.90
2018-08-14T22:32:53.532Z,19.80
2018-08-14T22:34:58.407Z,19.80
2018-08-14T22:37:03.236Z,19.80
2018-08-14T22:39:10.321Z,19.70
2018-08-14T22:41:15.412Z,19.60
2018-08-14T22:43:20.251Z,19.60
2018-08-14T22:45:25.369Z,19.60
2018-08-14T22:47:30.367Z,19.60
2018-08-14T22:49:35.268Z,19.70
2018-08-14T22:51:40.289Z,19.60
2018-08-14T22:53:45.325Z,19.60
2018-08-14T22:55:50.305Z,19.60
2018-08-14T22:57:55.226Z,19.50
2018-08-14T23:00:00.956Z,19.40
2018-08-14T23:02:05.914Z,19.50
2018-08-14T23:04:10.942Z,19.50
2018-08-14T23:06:15.946Z,19.40
2018-08-14T23:08:21.160Z,19.30
2018-08-14T23:10:26.273Z,19.40
2018-08-14T23:12:31.327Z,19.30
2018-08-14T23:14:36.368Z,19.50
2018-08-14T23:16:41.386Z,19.50
2018-08-14T23:18:46.601Z,19.50
2018-08-14T23:20:51.487Z,19.50
2018-08-14T23:22:56.326Z,19.70
2018-08-14T23:25:01.331Z,19.70
2018-08-14T23:27:06.678Z,19.60
2018-08-14T23:29:12.200Z,19.60
2018-08-14T23:31:17.433Z,19.50
2018-08-14T23:33:22.481Z,19.60
2018-08-14T23:35:27.405Z,19.60
2018-08-14T23:37:32.398Z,19.70
2018-08-14T23:39:37.338Z,19.70
2018-08-14T23:41:43.397Z,19.80
2018-08-14T23:43:48.387Z,19.70
2018-08-14T23:45:53.307Z,19.80
2018-08-14T23:47:59.534Z,19.80
2018-08-14T23:50:05.429Z,19.70
2018-08-14T23:52:10.357Z,19.80
2018-08-14T23:54:15.391Z,19.80
2018-08-14T23:56:20.352Z,19.70
2018-08-14T23:58:25.214Z,19.70
